sensor_id;sensor_type;location;lat;lon;timestamp;P1;durP1;ratioP1;P2;durP2;ratioP2
59308;SDS011;48433;53.016;-2.260;2023-07-31T00:00:53;7.55;;;2.80;;
59308;SDS011;48433;53.016;-2.260;2023-07-31T00:03:20;5.47;;;2.58;;
59308;SDS011;48433;53.016;-2.260;2023-07-31T00:05:48;9.13;;;2.20;;
59308;SDS011;48433;53.016;-2.260;2023-07-31T00:08:16;5.00;;;2.40;;
59308;SDS011;48433;53.016;-2.260;2023-07-31T00:10:44;9.90;;;2.60;;
59308;SDS011;48433;53.016;-2.260;2023-07-31T00:13:11;5.70;;;2.38;;
59308;SDS011;48433;53.016;-2.260;2023-07-31T00:15:39;5.82;;;2.50;;
59308;SDS011;48433;53.016;-2.260;2023-07-31T00:18:06;7.43;;;2.38;;
59308;SDS011;48433;53.016;-2.260;2023-07-31T00:20:34;5.65;;;2.72;;
59308;SDS011;48433;53.016;-2.260;2023-07-31T00:23:02;5.60;;;2.47;;
59308;SDS011;48433;53.016;-2.260;2023-07-31T00:25:29;9.60;;;3.50;;
59308;SDS011;48433;53.016;-2.260;2023-07-31T00:27:57;8.10;;;2.95;;
59308;SDS011;48433;53.016;-2.260;2023-07-31T00:30:26;6.65;;;2.67;;
59308;SDS011;48433;53.016;-2.260;2023-07-31T00:32:54;6.15;;;2.85;;
59308;SDS011;48433;53.016;-2.260;2023-07-31T00:35:21;6.55;;;2.80;;
59308;SDS011;48433;53.016;-2.260;2023-07-31T00:37:49;5.70;;;2.92;;
59308;SDS011;48433;53.016;-2.260;2023-07-31T00:40:16;8.20;;;2.60;;
59308;SDS011;48433;53.016;-2.260;2023-07-31T00:42:44;6.43;;;2.88;;
59308;SDS011;48433;53.016;-2.260;2023-07-31T00:45:12;6.93;;;3.20;;
59308;SDS011;48433;53.016;-2.260;2023-07-31T00:47:39;5.90;;;2.70;;
59308;SDS011;48433;53.016;-2.260;2023-07-31T00:50:08;7.13;;;2.72;;
59308;SDS011;48433;53.016;-2.260;2023-07-31T00:52:35;6.88;;;3.22;;
59308;SDS011;48433;53.016;-2.260;2023-07-31T00:55:04;7.18;;;3.03;;
59308;SDS011;48433;53.016;-2.260;2023-07-31T00:57:32;6.75;;;3.05;;
59308;SDS011;48433;53.016;-2.260;2023-07-31T01:00:02;9.88;;;4.20;;
59308;SDS011;48433;53.016;-2.260;2023-07-31T01:02:30;6.53;;;3.08;;
59308;SDS011;48433;53.016;-2.260;2023-07-31T01:04:58;5.13;;;2.40;;
59308;SDS011;48433;53.016;-2.260;2023-07-31T01:07:30;6.35;;;3.00;;
59308;SDS011;48433;53.016;-2.260;2023-07-31T01:10:23;7.47;;;3.47;;
59308;SDS011;48433;53.016;-2.260;2023-07-31T01:12:57;7.55;;;3.40;;
59308;SDS011;48433;53.016;-2.260;2023-07-31T01:15:25;12.45;;;4.13;;
59308;SDS011;48433;53.016;-2.260;2023-07-31T01:17:53;7.05;;;3.67;;
59308;SDS011;48433;53.016;-2.260;2023-07-31T01:20:22;7.68;;;4.07;;
59308;SDS011;48433;53.016;-2.260;2023-07-31T01:28:14;8.00;;;3.05;;
59308;SDS011;48433;53.016;-2.260;2023-07-31T01:30:55;6.20;;;2.83;;
59308;SDS011;48433;53.016;-2.260;2023-07-31T01:33:25;12.00;;;3.50;;
59308;SDS011;48433;53.016;-2.260;2023-07-31T01:35:53;5.47;;;2.75;;
59308;SDS011;48433;53.016;-2.260;2023-07-31T01:38:21;5.75;;;3.05;;
59308;SDS011;48433;53.016;-2.260;2023-07-31T01:40:52;6.43;;;3.90;;
59308;SDS011;48433;53.016;-2.260;2023-07-31T01:43:20;5.72;;;3.35;;
59308;SDS011;48433;53.016;-2.260;2023-07-31T01:45:49;5.45;;;2.80;;
59308;SDS011;48433;53.016;-2.260;2023-07-31T01:48:17;7.05;;;3.38;;
59308;SDS011;48433;53.016;-2.260;2023-07-31T01:50:45;5.97;;;3.15;;
59308;SDS011;48433;53.016;-2.260;2023-07-31T01:53:13;5.35;;;2.53;;
59308;SDS011;48433;53.016;-2.260;2023-07-31T01:55:40;5.70;;;2.75;;
59308;SDS011;48433;53.016;-2.260;2023-07-31T01:58:09;5.85;;;2.55;;
59308;SDS011;48433;53.016;-2.260;2023-07-31T02:00:36;6.35;;;3.00;;
59308;SDS011;48433;53.016;-2.260;2023-07-31T02:03:04;4.78;;;2.50;;
59308;SDS011;48433;53.016;-2.260;2023-07-31T02:05:32;5.97;;;1.83;;
59308;SDS011;48433;53.016;-2.260;2023-07-31T02:08:00;3.53;;;1.67;;
59308;SDS011;48433;53.016;-2.260;2023-07-31T02:10:31;3.25;;;1.67;;
59308;SDS011;48433;53.016;-2.260;2023-07-31T02:12:59;3.80;;;1.52;;
59308;SDS011;48433;53.016;-2.260;2023-07-31T02:15:27;2.80;;;1.33;;
59308;SDS011;48433;53.016;-2.260;2023-07-31T02:17:54;3.05;;;1.40;;
59308;SDS011;48433;53.016;-2.260;2023-07-31T02:20:22;4.82;;;1.58;;
59308;SDS011;48433;53.016;-2.260;2023-07-31T02:22:50;2.88;;;1.25;;
59308;SDS011;48433;53.016;-2.260;2023-07-31T02:25:18;4.78;;;1.35;;
59308;SDS011;48433;53.016;-2.260;2023-07-31T02:27:46;2.50;;;1.10;;
59308;SDS011;48433;53.016;-2.260;2023-07-31T02:30:15;2.78;;;1.20;;
59308;SDS011;48433;53.016;-2.260;2023-07-31T02:32:43;1.30;;;1.00;;
59308;SDS011;48433;53.016;-2.260;2023-07-31T02:35:11;1.88;;;1.05;;
59308;SDS011;48433;53.016;-2.260;2023-07-31T02:37:42;2.53;;;0.93;;
59308;SDS011;48433;53.016;-2.260;2023-07-31T02:40:10;1.55;;;0.80;;
59308;SDS011;48433;53.016;-2.260;2023-07-31T02:42:38;2.63;;;0.93;;
59308;SDS011;48433;53.016;-2.260;2023-07-31T02:45:05;1.83;;;0.88;;
59308;SDS011;48433;53.016;-2.260;2023-07-31T02:47:33;2.80;;;1.00;;
59308;SDS011;48433;53.016;-2.260;2023-07-31T02:50:02;2.88;;;0.70;;
59308;SDS011;48433;53.016;-2.260;2023-07-31T02:52:30;1.98;;;0.70;;
59308;SDS011;48433;53.016;-2.260;2023-07-31T02:54:58;1.42;;;0.88;;
59308;SDS011;48433;53.016;-2.260;2023-07-31T02:57:26;1.73;;;0.85;;
59308;SDS011;48433;53.016;-2.260;2023-07-31T02:59:53;3.08;;;1.00;;
59308;SDS011;48433;53.016;-2.260;2023-07-31T03:02:21;8.18;;;1.30;;
59308;SDS011;48433;53.016;-2.260;2023-07-31T03:04:49;1.85;;;1.00;;
59308;SDS011;48433;53.016;-2.260;2023-07-31T03:07:16;4.43;;;1.15;;
59308;SDS011;48433;53.016;-2.260;2023-07-31T03:09:44;2.15;;;0.93;;
59308;SDS011;48433;53.016;-2.260;2023-07-31T03:12:12;3.17;;;1.20;;
59308;SDS011;48433;53.016;-2.260;2023-07-31T03:14:39;7.88;;;1.45;;
59308;SDS011;48433;53.016;-2.260;2023-07-31T03:17:07;4.70;;;1.38;;
59308;SDS011;48433;53.016;-2.260;2023-07-31T03:19:35;4.82;;;1.88;;
59308;SDS011;48433;53.016;-2.260;2023-07-31T03:22:02;3.28;;;1.45;;
59308;SDS011;48433;53.016;-2.260;2023-07-31T03:24:30;4.43;;;1.50;;
59308;SDS011;48433;53.016;-2.260;2023-07-31T03:26:58;5.35;;;1.60;;
59308;SDS011;48433;53.016;-2.260;2023-07-31T03:29:26;6.35;;;1.85;;
59308;SDS011;48433;53.016;-2.260;2023-07-31T03:31:54;4.35;;;1.60;;
59308;SDS011;48433;53.016;-2.260;2023-07-31T03:34:21;6.15;;;1.80;;
59308;SDS011;48433;53.016;-2.260;2023-07-31T03:36:49;6.68;;;2.45;;
59308;SDS011;48433;53.016;-2.260;2023-07-31T03:39:16;8.15;;;2.10;;
59308;SDS011;48433;53.016;-2.260;2023-07-31T03:41:44;7.70;;;2.25;;
59308;SDS011;48433;53.016;-2.260;2023-07-31T03:44:12;6.00;;;2.05;;
59308;SDS011;48433;53.016;-2.260;2023-07-31T03:46:39;7.03;;;2.25;;
59308;SDS011;48433;53.016;-2.260;2023-07-31T03:49:07;6.32;;;2.20;;
59308;SDS011;48433;53.016;-2.260;2023-07-31T03:51:35;5.68;;;2.08;;
59308;SDS011;48433;53.016;-2.260;2023-07-31T03:54:03;10.52;;;2.58;;
59308;SDS011;48433;53.016;-2.260;2023-07-31T03:56:30;8.10;;;2.78;;
59308;SDS011;48433;53.016;-2.260;2023-07-31T03:59:02;9.75;;;3.75;;
59308;SDS011;48433;53.016;-2.260;2023-07-31T04:01:29;10.73;;;3.15;;
59308;SDS011;48433;53.016;-2.260;2023-07-31T04:03:57;14.23;;;4.18;;
59308;SDS011;48433;53.016;-2.260;2023-07-31T04:06:24;9.80;;;3.97;;
59308;SDS011;48433;53.016;-2.260;2023-07-31T04:08:52;9.82;;;3.72;;
59308;SDS011;48433;53.016;-2.260;2023-07-31T04:11:20;8.20;;;3.95;;
59308;SDS011;48433;53.016;-2.260;2023-07-31T04:13:47;11.95;;;4.10;;
59308;SDS011;48433;53.016;-2.260;2023-07-31T04:16:15;12.25;;;3.80;;
59308;SDS011;48433;53.016;-2.260;2023-07-31T04:18:43;7.75;;;3.10;;
59308;SDS011;48433;53.016;-2.260;2023-07-31T04:21:10;14.23;;;4.88;;
59308;SDS011;48433;53.016;-2.260;2023-07-31T04:23:38;12.40;;;4.80;;
59308;SDS011;48433;53.016;-2.260;2023-07-31T04:26:06;11.48;;;4.47;;
59308;SDS011;48433;53.016;-2.260;2023-07-31T04:28:33;12.50;;;4.47;;
59308;SDS011;48433;53.016;-2.260;2023-07-31T04:31:01;11.18;;;4.25;;
59308;SDS011;48433;53.016;-2.260;2023-07-31T04:33:29;12.80;;;4.68;;
59308;SDS011;48433;53.016;-2.260;2023-07-31T04:35:56;11.75;;;5.10;;
59308;SDS011;48433;53.016;-2.260;2023-07-31T04:38:25;10.38;;;4.18;;
59308;SDS011;48433;53.016;-2.260;2023-07-31T04:40:52;19.48;;;5.75;;
59308;SDS011;48433;53.016;-2.260;2023-07-31T04:43:20;13.70;;;5.18;;
59308;SDS011;48433;53.016;-2.260;2023-07-31T04:45:48;15.05;;;4.55;;
59308;SDS011;48433;53.016;-2.260;2023-07-31T04:48:16;13.23;;;5.28;;
59308;SDS011;48433;53.016;-2.260;2023-07-31T04:50:44;17.10;;;5.22;;
59308;SDS011;48433;53.016;-2.260;2023-07-31T04:53:12;19.25;;;5.45;;
59308;SDS011;48433;53.016;-2.260;2023-07-31T04:55:39;14.30;;;5.10;;
59308;SDS011;48433;53.016;-2.260;2023-07-31T04:58:07;13.65;;;6.95;;
59308;SDS011;48433;53.016;-2.260;2023-07-31T05:00:35;12.23;;;6.38;;
59308;SDS011;48433;53.016;-2.260;2023-07-31T05:03:02;15.55;;;5.75;;
59308;SDS011;48433;53.016;-2.260;2023-07-31T05:05:30;12.32;;;5.20;;
59308;SDS011;48433;53.016;-2.260;2023-07-31T05:07:58;12.80;;;5.90;;
59308;SDS011;48433;53.016;-2.260;2023-07-31T05:10:25;14.07;;;5.90;;
59308;SDS011;48433;53.016;-2.260;2023-07-31T05:12:53;15.40;;;5.40;;
59308;SDS011;48433;53.016;-2.260;2023-07-31T05:15:20;15.10;;;5.88;;
59308;SDS011;48433;53.016;-2.260;2023-07-31T05:17:48;15.15;;;5.97;;
59308;SDS011;48433;53.016;-2.260;2023-07-31T05:20:16;17.17;;;6.53;;
59308;SDS011;48433;53.016;-2.260;2023-07-31T05:22:43;15.85;;;6.10;;
59308;SDS011;48433;53.016;-2.260;2023-07-31T05:25:11;15.13;;;6.25;;
59308;SDS011;48433;53.016;-2.260;2023-07-31T05:27:39;18.10;;;6.43;;
59308;SDS011;48433;53.016;-2.260;2023-07-31T05:30:06;15.77;;;5.68;;
59308;SDS011;48433;53.016;-2.260;2023-07-31T05:32:34;13.75;;;6.28;;
59308;SDS011;48433;53.016;-2.260;2023-07-31T05:35:02;15.60;;;5.07;;
59308;SDS011;48433;53.016;-2.260;2023-07-31T05:37:30;14.52;;;6.05;;
59308;SDS011;48433;53.016;-2.260;2023-07-31T05:39:58;16.30;;;6.10;;
59308;SDS011;48433;53.016;-2.260;2023-07-31T05:42:25;22.23;;;8.55;;
59308;SDS011;48433;53.016;-2.260;2023-07-31T05:44:53;17.15;;;6.63;;
59308;SDS011;48433;53.016;-2.260;2023-07-31T05:47:21;16.83;;;6.35;;
59308;SDS011;48433;53.016;-2.260;2023-07-31T05:49:49;19.35;;;5.95;;
59308;SDS011;48433;53.016;-2.260;2023-07-31T05:52:19;17.47;;;6.80;;
59308;SDS011;48433;53.016;-2.260;2023-07-31T05:54:47;17.40;;;7.82;;
59308;SDS011;48433;53.016;-2.260;2023-07-31T05:57:14;17.38;;;7.60;;
59308;SDS011;48433;53.016;-2.260;2023-07-31T05:59:42;16.25;;;6.55;;
59308;SDS011;48433;53.016;-2.260;2023-07-31T06:02:09;18.33;;;6.72;;
59308;SDS011;48433;53.016;-2.260;2023-07-31T06:04:37;20.02;;;8.07;;
59308;SDS011;48433;53.016;-2.260;2023-07-31T06:07:05;16.63;;;7.00;;
59308;SDS011;48433;53.016;-2.260;2023-07-31T06:09:33;16.42;;;5.93;;
59308;SDS011;48433;53.016;-2.260;2023-07-31T06:12:00;23.27;;;8.10;;
59308;SDS011;48433;53.016;-2.260;2023-07-31T06:14:28;15.65;;;6.00;;
59308;SDS011;48433;53.016;-2.260;2023-07-31T06:16:55;19.92;;;7.45;;
59308;SDS011;48433;53.016;-2.260;2023-07-31T06:19:23;15.65;;;5.65;;
59308;SDS011;48433;53.016;-2.260;2023-07-31T06:21:51;15.13;;;6.32;;
59308;SDS011;48433;53.016;-2.260;2023-07-31T06:24:19;16.45;;;6.80;;
59308;SDS011;48433;53.016;-2.260;2023-07-31T06:26:47;17.48;;;6.97;;
59308;SDS011;48433;53.016;-2.260;2023-07-31T06:29:15;14.48;;;6.72;;
59308;SDS011;48433;53.016;-2.260;2023-07-31T06:31:43;18.85;;;6.63;;
59308;SDS011;48433;53.016;-2.260;2023-07-31T06:34:11;20.90;;;6.43;;
59308;SDS011;48433;53.016;-2.260;2023-07-31T06:36:38;17.20;;;6.65;;
59308;SDS011;48433;53.016;-2.260;2023-07-31T06:39:06;13.18;;;6.65;;
59308;SDS011;48433;53.016;-2.260;2023-07-31T06:41:34;17.35;;;5.70;;
59308;SDS011;48433;53.016;-2.260;2023-07-31T06:46:33;14.05;;;5.70;;
59308;SDS011;48433;53.016;-2.260;2023-07-31T06:49:00;15.90;;;6.10;;
59308;SDS011;48433;53.016;-2.260;2023-07-31T06:51:28;15.30;;;6.10;;
59308;SDS011;48433;53.016;-2.260;2023-07-31T06:53:58;15.07;;;6.40;;
59308;SDS011;48433;53.016;-2.260;2023-07-31T06:56:25;13.55;;;5.97;;
59308;SDS011;48433;53.016;-2.260;2023-07-31T06:58:55;15.63;;;6.28;;
59308;SDS011;48433;53.016;-2.260;2023-07-31T07:01:23;18.08;;;6.97;;
59308;SDS011;48433;53.016;-2.260;2023-07-31T07:03:50;16.95;;;5.88;;
59308;SDS011;48433;53.016;-2.260;2023-07-31T07:06:18;16.65;;;6.00;;
59308;SDS011;48433;53.016;-2.260;2023-07-31T07:08:46;16.25;;;6.38;;
59308;SDS011;48433;53.016;-2.260;2023-07-31T07:11:13;14.55;;;5.40;;
59308;SDS011;48433;53.016;-2.260;2023-07-31T07:13:41;16.95;;;6.28;;
59308;SDS011;48433;53.016;-2.260;2023-07-31T07:16:09;12.23;;;5.05;;
59308;SDS011;48433;53.016;-2.260;2023-07-31T07:18:37;14.10;;;5.25;;
59308;SDS011;48433;53.016;-2.260;2023-07-31T07:21:13;14.68;;;5.25;;
59308;SDS011;48433;53.016;-2.260;2023-07-31T07:23:42;12.45;;;5.40;;
59308;SDS011;48433;53.016;-2.260;2023-07-31T07:26:10;13.77;;;5.25;;
59308;SDS011;48433;53.016;-2.260;2023-07-31T07:28:38;9.50;;;4.55;;
59308;SDS011;48433;53.016;-2.260;2023-07-31T07:31:05;15.13;;;5.45;;
59308;SDS011;48433;53.016;-2.260;2023-07-31T07:33:33;10.55;;;4.30;;
59308;SDS011;48433;53.016;-2.260;2023-07-31T07:36:01;9.23;;;3.92;;
59308;SDS011;48433;53.016;-2.260;2023-07-31T07:38:29;11.77;;;4.32;;
59308;SDS011;48433;53.016;-2.260;2023-07-31T07:40:56;11.10;;;4.82;;
59308;SDS011;48433;53.016;-2.260;2023-07-31T07:43:24;13.25;;;4.53;;
59308;SDS011;48433;53.016;-2.260;2023-07-31T07:45:51;11.57;;;3.78;;
59308;SDS011;48433;53.016;-2.260;2023-07-31T07:48:21;12.43;;;3.85;;
59308;SDS011;48433;53.016;-2.260;2023-07-31T07:50:49;16.13;;;4.38;;
59308;SDS011;48433;53.016;-2.260;2023-07-31T07:53:16;11.27;;;4.32;;
59308;SDS011;48433;53.016;-2.260;2023-07-31T07:55:44;11.32;;;3.58;;
59308;SDS011;48433;53.016;-2.260;2023-07-31T07:58:12;11.75;;;4.45;;
59308;SDS011;48433;53.016;-2.260;2023-07-31T08:00:39;15.55;;;4.00;;
59308;SDS011;48433;53.016;-2.260;2023-07-31T08:03:07;10.65;;;3.85;;
59308;SDS011;48433;53.016;-2.260;2023-07-31T08:05:35;10.00;;;3.88;;
59308;SDS011;48433;53.016;-2.260;2023-07-31T08:08:02;14.32;;;4.20;;
59308;SDS011;48433;53.016;-2.260;2023-07-31T08:10:30;12.57;;;4.20;;
59308;SDS011;48433;53.016;-2.260;2023-07-31T08:12:58;9.75;;;3.90;;
59308;SDS011;48433;53.016;-2.260;2023-07-31T08:15:25;9.65;;;3.67;;
59308;SDS011;48433;53.016;-2.260;2023-07-31T08:17:53;12.70;;;3.95;;
59308;SDS011;48433;53.016;-2.260;2023-07-31T08:20:21;10.73;;;3.83;;
59308;SDS011;48433;53.016;-2.260;2023-07-31T08:22:48;10.30;;;3.35;;
59308;SDS011;48433;53.016;-2.260;2023-07-31T08:25:16;10.60;;;3.40;;
59308;SDS011;48433;53.016;-2.260;2023-07-31T08:27:44;13.05;;;3.92;;
59308;SDS011;48433;53.016;-2.260;2023-07-31T08:30:11;15.32;;;4.57;;
59308;SDS011;48433;53.016;-2.260;2023-07-31T08:32:39;10.45;;;3.78;;
59308;SDS011;48433;53.016;-2.260;2023-07-31T08:35:07;8.90;;;3.63;;
59308;SDS011;48433;53.016;-2.260;2023-07-31T08:37:35;11.27;;;3.83;;
59308;SDS011;48433;53.016;-2.260;2023-07-31T08:40:03;10.85;;;3.63;;
59308;SDS011;48433;53.016;-2.260;2023-07-31T08:42:31;9.73;;;3.92;;
59308;SDS011;48433;53.016;-2.260;2023-07-31T08:44:59;15.05;;;4.22;;
59308;SDS011;48433;53.016;-2.260;2023-07-31T08:47:27;11.73;;;3.50;;
59308;SDS011;48433;53.016;-2.260;2023-07-31T08:49:55;13.38;;;3.97;;
59308;SDS011;48433;53.016;-2.260;2023-07-31T08:52:24;9.63;;;3.13;;
59308;SDS011;48433;53.016;-2.260;2023-07-31T08:54:52;10.82;;;3.85;;
59308;SDS011;48433;53.016;-2.260;2023-07-31T08:57:19;9.65;;;3.30;;
59308;SDS011;48433;53.016;-2.260;2023-07-31T08:59:47;9.68;;;3.45;;
59308;SDS011;48433;53.016;-2.260;2023-07-31T09:02:16;10.88;;;3.63;;
59308;SDS011;48433;53.016;-2.260;2023-07-31T09:04:45;11.98;;;3.28;;
59308;SDS011;48433;53.016;-2.260;2023-07-31T09:07:13;12.07;;;4.05;;
59308;SDS011;48433;53.016;-2.260;2023-07-31T09:09:42;7.57;;;3.53;;
59308;SDS011;48433;53.016;-2.260;2023-07-31T09:12:10;10.02;;;3.33;;
59308;SDS011;48433;53.016;-2.260;2023-07-31T09:14:37;9.82;;;3.25;;
59308;SDS011;48433;53.016;-2.260;2023-07-31T09:17:06;9.82;;;3.00;;
59308;SDS011;48433;53.016;-2.260;2023-07-31T09:19:34;9.77;;;2.95;;
59308;SDS011;48433;53.016;-2.260;2023-07-31T09:22:05;11.15;;;4.38;;
59308;SDS011;48433;53.016;-2.260;2023-07-31T09:24:34;9.70;;;3.25;;
59308;SDS011;48433;53.016;-2.260;2023-07-31T09:27:02;10.73;;;2.85;;
59308;SDS011;48433;53.016;-2.260;2023-07-31T09:29:29;10.15;;;3.45;;
59308;SDS011;48433;53.016;-2.260;2023-07-31T09:31:57;11.10;;;3.05;;
59308;SDS011;48433;53.016;-2.260;2023-07-31T09:34:29;8.68;;;2.70;;
59308;SDS011;48433;53.016;-2.260;2023-07-31T09:37:06;12.02;;;3.63;;
59308;SDS011;48433;53.016;-2.260;2023-07-31T09:39:36;10.50;;;3.83;;
59308;SDS011;48433;53.016;-2.260;2023-07-31T09:42:13;11.63;;;3.65;;
59308;SDS011;48433;53.016;-2.260;2023-07-31T09:44:41;9.57;;;3.15;;
59308;SDS011;48433;53.016;-2.260;2023-07-31T09:47:24;11.30;;;4.38;;
59308;SDS011;48433;53.016;-2.260;2023-07-31T09:49:53;9.88;;;3.42;;
59308;SDS011;48433;53.016;-2.260;2023-07-31T09:52:20;13.15;;;4.35;;
59308;SDS011;48433;53.016;-2.260;2023-07-31T09:54:49;10.68;;;3.50;;
59308;SDS011;48433;53.016;-2.260;2023-07-31T09:57:16;13.50;;;3.33;;
59308;SDS011;48433;53.016;-2.260;2023-07-31T09:59:46;10.88;;;3.10;;
59308;SDS011;48433;53.016;-2.260;2023-07-31T10:02:15;13.10;;;3.92;;
59308;SDS011;48433;53.016;-2.260;2023-07-31T10:04:50;10.35;;;2.85;;
59308;SDS011;48433;53.016;-2.260;2023-07-31T10:07:18;9.95;;;3.58;;
59308;SDS011;48433;53.016;-2.260;2023-07-31T10:09:47;7.63;;;2.47;;
59308;SDS011;48433;53.016;-2.260;2023-07-31T10:12:15;13.45;;;3.55;;
59308;SDS011;48433;53.016;-2.260;2023-07-31T10:14:49;10.35;;;3.33;;
59308;SDS011;48433;53.016;-2.260;2023-07-31T10:17:19;8.35;;;3.78;;
59308;SDS011;48433;53.016;-2.260;2023-07-31T10:19:49;7.68;;;3.05;;
59308;SDS011;48433;53.016;-2.260;2023-07-31T10:22:18;12.57;;;3.97;;
59308;SDS011;48433;53.016;-2.260;2023-07-31T10:24:48;10.68;;;3.40;;
59308;SDS011;48433;53.016;-2.260;2023-07-31T10:27:19;13.38;;;4.10;;
59308;SDS011;48433;53.016;-2.260;2023-07-31T10:29:46;12.23;;;4.00;;
59308;SDS011;48433;53.016;-2.260;2023-07-31T10:32:16;12.77;;;4.03;;
59308;SDS011;48433;53.016;-2.260;2023-07-31T10:34:44;13.02;;;3.53;;
59308;SDS011;48433;53.016;-2.260;2023-07-31T10:37:20;15.40;;;4.75;;
59308;SDS011;48433;53.016;-2.260;2023-07-31T10:40:05;10.98;;;3.63;;
59308;SDS011;48433;53.016;-2.260;2023-07-31T10:42:54;9.95;;;3.42;;
59308;SDS011;48433;53.016;-2.260;2023-07-31T10:45:30;11.40;;;3.60;;
59308;SDS011;48433;53.016;-2.260;2023-07-31T10:48:07;10.65;;;3.50;;
59308;SDS011;48433;53.016;-2.260;2023-07-31T10:50:49;9.02;;;3.28;;
59308;SDS011;48433;53.016;-2.260;2023-07-31T10:53:31;11.82;;;3.90;;
59308;SDS011;48433;53.016;-2.260;2023-07-31T10:56:00;9.57;;;3.60;;
59308;SDS011;48433;53.016;-2.260;2023-07-31T10:58:29;9.40;;;3.05;;
59308;SDS011;48433;53.016;-2.260;2023-07-31T11:00:59;13.57;;;4.85;;
59308;SDS011;48433;53.016;-2.260;2023-07-31T11:06:11;14.48;;;4.72;;
59308;SDS011;48433;53.016;-2.260;2023-07-31T11:08:44;12.60;;;4.07;;
59308;SDS011;48433;53.016;-2.260;2023-07-31T11:11:17;12.32;;;3.95;;
59308;SDS011;48433;53.016;-2.260;2023-07-31T11:16:18;15.93;;;4.93;;
59308;SDS011;48433;53.016;-2.260;2023-07-31T11:18:50;16.88;;;5.20;;
59308;SDS011;48433;53.016;-2.260;2023-07-31T11:21:21;12.27;;;5.22;;
59308;SDS011;48433;53.016;-2.260;2023-07-31T11:23:52;15.23;;;5.60;;
59308;SDS011;48433;53.016;-2.260;2023-07-31T11:26:24;13.98;;;4.70;;
59308;SDS011;48433;53.016;-2.260;2023-07-31T11:28:51;17.02;;;5.28;;
59308;SDS011;48433;53.016;-2.260;2023-07-31T11:31:19;12.73;;;5.20;;
59308;SDS011;48433;53.016;-2.260;2023-07-31T11:33:47;21.23;;;6.00;;
59308;SDS011;48433;53.016;-2.260;2023-07-31T11:36:19;14.93;;;5.70;;
59308;SDS011;48433;53.016;-2.260;2023-07-31T11:38:47;15.27;;;5.13;;
59308;SDS011;48433;53.016;-2.260;2023-07-31T11:41:16;14.20;;;5.35;;
59308;SDS011;48433;53.016;-2.260;2023-07-31T11:43:45;19.35;;;5.80;;
59308;SDS011;48433;53.016;-2.260;2023-07-31T11:46:14;12.60;;;4.80;;
59308;SDS011;48433;53.016;-2.260;2023-07-31T11:48:42;12.32;;;5.00;;
59308;SDS011;48433;53.016;-2.260;2023-07-31T11:51:11;14.32;;;5.50;;
59308;SDS011;48433;53.016;-2.260;2023-07-31T11:53:41;17.05;;;5.47;;
59308;SDS011;48433;53.016;-2.260;2023-07-31T11:56:13;14.27;;;5.75;;
59308;SDS011;48433;53.016;-2.260;2023-07-31T11:58:43;14.93;;;5.20;;
59308;SDS011;48433;53.016;-2.260;2023-07-31T12:01:14;13.88;;;6.10;;
59308;SDS011;48433;53.016;-2.260;2023-07-31T12:03:44;17.33;;;5.00;;
59308;SDS011;48433;53.016;-2.260;2023-07-31T12:06:13;13.75;;;5.20;;
59308;SDS011;48433;53.016;-2.260;2023-07-31T12:08:41;15.60;;;4.70;;
59308;SDS011;48433;53.016;-2.260;2023-07-31T12:11:09;13.77;;;4.65;;
59308;SDS011;48433;53.016;-2.260;2023-07-31T12:13:36;13.50;;;5.32;;
59308;SDS011;48433;53.016;-2.260;2023-07-31T12:16:04;14.43;;;4.63;;
59308;SDS011;48433;53.016;-2.260;2023-07-31T12:18:36;10.18;;;3.70;;
59308;SDS011;48433;53.016;-2.260;2023-07-31T12:21:06;14.98;;;4.57;;
59308;SDS011;48433;53.016;-2.260;2023-07-31T12:23:36;14.77;;;4.75;;
59308;SDS011;48433;53.016;-2.260;2023-07-31T12:26:08;11.85;;;4.75;;
59308;SDS011;48433;53.016;-2.260;2023-07-31T12:28:37;17.27;;;5.13;;
59308;SDS011;48433;53.016;-2.260;2023-07-31T12:31:18;12.60;;;3.83;;
59308;SDS011;48433;53.016;-2.260;2023-07-31T12:33:48;13.68;;;4.70;;
59308;SDS011;48433;53.016;-2.260;2023-07-31T12:36:18;11.98;;;4.07;;
59308;SDS011;48433;53.016;-2.260;2023-07-31T12:38:50;18.35;;;5.50;;
59308;SDS011;48433;53.016;-2.260;2023-07-31T12:41:18;13.20;;;4.25;;
59308;SDS011;48433;53.016;-2.260;2023-07-31T12:43:46;12.10;;;4.68;;
59308;SDS011;48433;53.016;-2.260;2023-07-31T12:46:14;18.40;;;4.47;;
59308;SDS011;48433;53.016;-2.260;2023-07-31T12:48:42;16.55;;;5.40;;
59308;SDS011;48433;53.016;-2.260;2023-07-31T12:51:09;18.20;;;5.47;;
59308;SDS011;48433;53.016;-2.260;2023-07-31T12:53:37;22.00;;;6.35;;
59308;SDS011;48433;53.016;-2.260;2023-07-31T12:56:04;16.20;;;5.15;;
59308;SDS011;48433;53.016;-2.260;2023-07-31T12:58:32;19.17;;;6.40;;
59308;SDS011;48433;53.016;-2.260;2023-07-31T13:01:00;12.63;;;5.20;;
59308;SDS011;48433;53.016;-2.260;2023-07-31T13:03:29;19.50;;;5.47;;
59308;SDS011;48433;53.016;-2.260;2023-07-31T13:05:57;15.70;;;5.20;;
59308;SDS011;48433;53.016;-2.260;2023-07-31T13:08:24;17.52;;;5.30;;
59308;SDS011;48433;53.016;-2.260;2023-07-31T13:10:52;19.38;;;4.82;;
59308;SDS011;48433;53.016;-2.260;2023-07-31T13:13:20;11.38;;;4.20;;
59308;SDS011;48433;53.016;-2.260;2023-07-31T13:15:49;18.83;;;4.72;;
59308;SDS011;48433;53.016;-2.260;2023-07-31T13:18:16;19.13;;;5.40;;
59308;SDS011;48433;53.016;-2.260;2023-07-31T13:20:44;14.63;;;5.15;;
59308;SDS011;48433;53.016;-2.260;2023-07-31T13:23:11;12.82;;;4.60;;
59308;SDS011;48433;53.016;-2.260;2023-07-31T13:25:39;15.40;;;5.40;;
59308;SDS011;48433;53.016;-2.260;2023-07-31T13:28:07;14.30;;;4.90;;
59308;SDS011;48433;53.016;-2.260;2023-07-31T13:30:34;19.58;;;5.85;;
59308;SDS011;48433;53.016;-2.260;2023-07-31T13:33:02;14.68;;;4.80;;
59308;SDS011;48433;53.016;-2.260;2023-07-31T13:35:30;19.77;;;6.32;;
59308;SDS011;48433;53.016;-2.260;2023-07-31T13:37:58;14.82;;;5.22;;
59308;SDS011;48433;53.016;-2.260;2023-07-31T13:40:26;16.70;;;5.13;;
59308;SDS011;48433;53.016;-2.260;2023-07-31T13:42:53;17.30;;;5.45;;
59308;SDS011;48433;53.016;-2.260;2023-07-31T13:45:22;18.88;;;4.75;;
59308;SDS011;48433;53.016;-2.260;2023-07-31T13:47:50;14.43;;;4.97;;
59308;SDS011;48433;53.016;-2.260;2023-07-31T13:50:18;12.85;;;4.95;;
59308;SDS011;48433;53.016;-2.260;2023-07-31T13:52:48;10.65;;;4.00;;
59308;SDS011;48433;53.016;-2.260;2023-07-31T13:55:15;15.20;;;5.88;;
59308;SDS011;48433;53.016;-2.260;2023-07-31T13:57:43;13.68;;;5.15;;
59308;SDS011;48433;53.016;-2.260;2023-07-31T14:00:11;16.00;;;5.13;;
59308;SDS011;48433;53.016;-2.260;2023-07-31T14:02:39;14.32;;;4.35;;
59308;SDS011;48433;53.016;-2.260;2023-07-31T14:05:07;15.45;;;5.93;;
59308;SDS011;48433;53.016;-2.260;2023-07-31T14:07:36;11.02;;;4.43;;
59308;SDS011;48433;53.016;-2.260;2023-07-31T14:10:04;15.27;;;5.43;;
59308;SDS011;48433;53.016;-2.260;2023-07-31T14:12:32;13.65;;;5.07;;
59308;SDS011;48433;53.016;-2.260;2023-07-31T14:15:09;11.98;;;5.07;;
59308;SDS011;48433;53.016;-2.260;2023-07-31T14:17:38;16.38;;;5.88;;
59308;SDS011;48433;53.016;-2.260;2023-07-31T14:20:06;9.75;;;4.82;;
59308;SDS011;48433;53.016;-2.260;2023-07-31T14:22:35;11.18;;;4.25;;
59308;SDS011;48433;53.016;-2.260;2023-07-31T14:25:02;10.55;;;3.92;;
59308;SDS011;48433;53.016;-2.260;2023-07-31T14:27:30;11.45;;;3.88;;
59308;SDS011;48433;53.016;-2.260;2023-07-31T14:29:58;9.27;;;3.50;;
59308;SDS011;48433;53.016;-2.260;2023-07-31T14:32:26;11.23;;;4.22;;
59308;SDS011;48433;53.016;-2.260;2023-07-31T14:34:53;10.88;;;3.65;;
59308;SDS011;48433;53.016;-2.260;2023-07-31T14:37:22;10.52;;;3.53;;
59308;SDS011;48433;53.016;-2.260;2023-07-31T14:39:49;12.48;;;4.00;;
59308;SDS011;48433;53.016;-2.260;2023-07-31T14:42:17;10.85;;;4.60;;
59308;SDS011;48433;53.016;-2.260;2023-07-31T14:44:46;11.15;;;3.90;;
59308;SDS011;48433;53.016;-2.260;2023-07-31T14:47:14;9.93;;;3.95;;